createdAt,value
2017-12-28T00:00:22.206Z,3.84
2017-12-28T00:01:25.679Z,3.91
2017-12-28T00:02:28.583Z,3.81
2017-12-28T00:03:31.608Z,3.63
2017-12-28T00:04:34.631Z,3.86
2017-12-28T00:05:37.587Z,3.88
2017-12-28T00:06:41.264Z,3.89
2017-12-28T00:07:44.533Z,3.86
2017-12-28T00:08:48.181Z,3.57
2017-12-28T00:09:51.164Z,3.77
2017-12-28T00:10:54.238Z,3.88
2017-12-28T00:11:57.181Z,3.78
2017-12-28T00:13:00.616Z,3.77
2017-12-28T00:14:03.617Z,3.86
2017-12-28T00:15:06.627Z,3.82
2017-12-28T00:16:09.581Z,3.60
2017-12-28T00:17:13.165Z,3.69
2017-12-28T00:18:17.080Z,3.85
2017-12-28T00:19:20.455Z,3.74
2017-12-28T00:20:23.423Z,3.93
2017-12-28T00:21:26.356Z,3.96
2017-12-28T00:22:29.343Z,3.85
2017-12-28T00:23:32.956Z,3.79
2017-12-28T00:24:36.457Z,3.89
2017-12-28T00:25:40.427Z,3.64
2017-12-28T00:26:44.399Z,3.79
2017-12-28T00:27:47.666Z,3.70
2017-12-28T00:28:51.649Z,3.72
2017-12-28T00:29:55.817Z,3.71
2017-12-28T00:30:58.798Z,3.81
2017-12-28T00:32:04.365Z,3.52
2017-12-28T00:33:07.515Z,3.49
2017-12-28T00:34:11.128Z,3.44
2017-12-28T00:35:14.105Z,3.53
2017-12-28T00:36:17.226Z,3.83
2017-12-28T00:37:20.519Z,3.84
2017-12-28T00:38:23.903Z,4.00
2017-12-28T00:39:26.873Z,3.99
2017-12-28T00:40:30.514Z,3.99
2017-12-28T00:41:33.568Z,4.22
2017-12-28T00:42:36.600Z,4.20
2017-12-28T00:43:39.531Z,3.55
2017-12-28T00:44:42.922Z,3.58
2017-12-28T00:45:45.945Z,3.78
2017-12-28T00:46:49.606Z,3.78
2017-12-28T00:47:52.568Z,3.71
2017-12-28T00:48:55.791Z,3.50
2017-12-28T00:49:59.396Z,3.54
2017-12-28T00:51:03.128Z,3.77
2017-12-28T00:52:06.214Z,3.38
2017-12-28T00:53:09.238Z,3.46
2017-12-28T00:54:12.147Z,3.72
2017-12-28T00:55:15.125Z,3.57
2017-12-28T00:56:18.253Z,3.68
2017-12-28T00:57:21.736Z,3.60
2017-12-28T00:58:24.695Z,3.79
2017-12-28T00:59:27.699Z,3.85
2017-12-28T01:00:30.645Z,3.65
2017-12-28T01:01:34.635Z,3.56
2017-12-28T01:02:37.709Z,3.79
2017-12-28T01:03:41.065Z,3.80
2017-12-28T01:04:44.069Z,3.75
2017-12-28T01:05:47.023Z,3.91
2017-12-28T01:06:49.944Z,3.81
2017-12-28T01:07:52.813Z,3.88
2017-12-28T01:08:56.095Z,3.80
2017-12-28T01:10:00.285Z,3.92
2017-12-28T01:11:03.135Z,4.04
2017-12-28T01:12:06.009Z,4.06
2017-12-28T01:13:08.893Z,4.09
2017-12-28T01:14:11.904Z,4.13
2017-12-28T01:15:15.000Z,4.19
2017-12-28T01:16:18.429Z,3.99
2017-12-28T01:17:21.430Z,3.98
2017-12-28T01:18:24.404Z,3.86
2017-12-28T01:19:27.304Z,3.83
2017-12-28T01:20:30.212Z,3.95
2017-12-28T01:21:33.172Z,3.91
2017-12-28T01:22:36.441Z,3.84
2017-12-28T01:23:39.319Z,3.90
2017-12-28T01:24:42.212Z,3.94
2017-12-28T01:25:45.214Z,3.98
2017-12-28T01:26:48.170Z,3.92
2017-12-28T01:27:51.126Z,3.94
2017-12-28T01:28:55.258Z,3.90
2017-12-28T01:29:58.163Z,3.87
2017-12-28T01:31:01.014Z,3.75
2017-12-28T01:32:04.031Z,3.90
2017-12-28T01:33:06.980Z,3.86
2017-12-28T01:34:09.992Z,3.72
2017-12-28T01:35:14.347Z,3.81
2017-12-28T01:36:17.380Z,3.81
2017-12-28T01:37:21.000Z,3.77
2017-12-28T01:38:24.004Z,3.75
2017-12-28T01:39:26.956Z,3.69
2017-12-28T01:40:29.955Z,3.79
2017-12-28T01:41:33.343Z,3.72
2017-12-28T01:42:36.405Z,3.76
2017-12-28T01:43:39.384Z,3.60
2017-12-28T01:44:42.410Z,3.69
2017-12-28T01:45:45.374Z,3.73
2017-12-28T01:46:48.464Z,3.64
2017-12-28T01:47:51.875Z,3.66
2017-12-28T01:48:54.906Z,3.53
2017-12-28T01:49:57.999Z,3.56
2017-12-28T01:51:00.957Z,3.57
2017-12-28T01:52:03.875Z,3.58
2017-12-28T01:53:06.837Z,3.56
2017-12-28T01:54:10.244Z,3.64
2017-12-28T01:55:13.230Z,3.54
2017-12-28T01:56:16.225Z,3.66
2017-12-28T01:57:19.195Z,3.72
2017-12-28T01:58:22.157Z,3.71
2017-12-28T01:59:25.100Z,3.72
2017-12-28T02:00:28.543Z,3.47
2017-12-28T02:01:31.656Z,3.54
2017-12-28T02:02:34.672Z,3.49
2017-12-28T02:03:37.573Z,3.54
2017-12-28T02:04:40.416Z,3.55
2017-12-28T02:05:43.259Z,3.50
2017-12-28T02:06:46.496Z,3.49
2017-12-28T02:07:49.352Z,3.63
2017-12-28T02:08:52.347Z,3.58
2017-12-28T02:09:55.321Z,3.67
2017-12-28T02:10:58.260Z,3.67
2017-12-28T02:12:01.270Z,3.72
2017-12-28T02:13:04.584Z,3.73
2017-12-28T02:14:07.568Z,3.64
2017-12-28T02:15:10.499Z,3.62
2017-12-28T02:16:13.455Z,3.64
2017-12-28T02:17:16.388Z,3.68
2017-12-28T02:18:19.404Z,3.69
2017-12-28T02:19:22.688Z,3.57
2017-12-28T02:20:25.580Z,3.62
2017-12-28T02:21:28.495Z,3.58
2017-12-28T02:22:31.454Z,3.57
2017-12-28T02:23:34.388Z,3.71
2017-12-28T02:24:37.332Z,3.62
2017-12-28T02:25:40.862Z,3.51
2017-12-28T02:26:43.795Z,3.49
2017-12-28T02:27:46.748Z,3.46
2017-12-28T02:28:49.767Z,3.53
2017-12-28T02:29:52.723Z,3.57
2017-12-28T02:30:55.687Z,3.69
2017-12-28T02:31:59.003Z,3.71
2017-12-28T02:33:01.965Z,3.74
2017-12-28T02:34:05.442Z,3.61
2017-12-28T02:35:08.340Z,3.65
2017-12-28T02:36:11.326Z,3.67
2017-12-28T02:37:14.369Z,3.58
2017-12-28T02:38:17.649Z,3.64
2017-12-28T02:39:20.549Z,3.69
2017-12-28T02:40:23.447Z,3.76
2017-12-28T02:41:26.824Z,3.82
2017-12-28T02:42:29.827Z,3.81
2017-12-28T02:43:32.911Z,3.74
2017-12-28T02:44:36.151Z,3.66
2017-12-28T02:45:39.125Z,3.33
2017-12-28T02:46:41.966Z,3.51
2017-12-28T02:47:44.811Z,3.47
2017-12-28T02:48:47.851Z,3.50
2017-12-28T02:49:50.676Z,3.40
2017-12-28T02:50:53.892Z,3.12
2017-12-28T02:51:56.730Z,3.38
2017-12-28T02:52:59.675Z,3.35
2017-12-28T02:54:02.674Z,3.57
2017-12-28T02:55:05.602Z,3.37
2017-12-28T02:56:08.525Z,3.56
2017-12-28T02:57:11.970Z,3.67
2017-12-28T02:58:14.823Z,3.74
2017-12-28T02:59:17.812Z,3.34
2017-12-28T03:00:20.634Z,3.44
2017-12-28T03:01:23.471Z,3.45
2017-12-28T03:02:26.304Z,3.54
2017-12-28T03:03:29.539Z,3.20
2017-12-28T03:04:32.491Z,3.30
2017-12-28T03:05:35.385Z,3.32
2017-12-28T03:06:38.250Z,3.41
2017-12-28T03:07:41.131Z,3.32
2017-12-28T03:08:44.067Z,3.43
2017-12-28T03:09:47.454Z,3.52
2017-12-28T03:10:50.373Z,3.38
2017-12-28T03:11:53.372Z,3.35
2017-12-28T03:12:56.332Z,3.47
2017-12-28T03:13:59.274Z,3.49
2017-12-28T03:15:02.132Z,3.35
2017-12-28T03:16:06.717Z,3.56
2017-12-28T03:17:09.530Z,3.51
2017-12-28T03:18:12.344Z,3.48
2017-12-28T03:19:15.187Z,3.54
2017-12-28T03:20:18.023Z,3.35
2017-12-28T03:21:20.898Z,3.43
2017-12-28T03:22:24.200Z,3.43
2017-12-28T03:23:27.134Z,3.53
2017-12-28T03:24:30.116Z,3.55
2017-12-28T03:25:33.027Z,3.49
2017-12-28T03:26:36.109Z,3.13
2017-12-28T03:27:39.045Z,3.40
2017-12-28T03:28:42.459Z,3.33
2017-12-28T03:29:45.425Z,3.42
2017-12-28T03:30:48.630Z,3.17
2017-12-28T03:31:51.617Z,3.25
2017-12-28T03:32:54.612Z,3.14
2017-12-28T03:33:57.617Z,3.21
2017-12-28T03:35:01.054Z,3.13
2017-12-28T03:36:04.028Z,3.22
2017-12-28T03:37:07.016Z,3.16
2017-12-28T03:38:10.054Z,3.24
2017-12-28T03:39:13.031Z,3.23
2017-12-28T03:40:15.974Z,3.16
2017-12-28T03:41:19.404Z,3.20
2017-12-28T03:42:22.909Z,3.19
2017-12-28T03:43:26.010Z,3.17
2017-12-28T03:44:29.025Z,3.20
2017-12-28T03:45:31.986Z,3.27
2017-12-28T03:46:35.084Z,3.12
2017-12-28T03:47:38.486Z,3.11
2017-12-28T03:48:41.481Z,3.25
2017-12-28T03:49:44.431Z,3.35
2017-12-28T03:50:47.434Z,3.25
2017-12-28T03:51:50.378Z,3.32
2017-12-28T03:52:53.211Z,3.08
2017-12-28T03:53:56.821Z,3.33
2017-12-28T03:54:59.757Z,3.13
2017-12-28T03:56:02.634Z,3.27
2017-12-28T03:57:05.513Z,3.14
2017-12-28T03:58:09.380Z,3.27
2017-12-28T03:59:12.213Z,3.02
2017-12-28T04:00:15.502Z,3.06
2017-12-28T04:01:18.346Z,3.07
2017-12-28T04:02:21.171Z,3.09
2017-12-28T04:03:23.982Z,3.13
2017-12-28T04:04:26.944Z,3.28
2017-12-28T04:05:29.802Z,3.05
2017-12-28T04:06:33.009Z,3.09
2017-12-28T04:07:35.925Z,3.15
2017-12-28T04:08:38.845Z,3.00
2017-12-28T04:09:41.778Z,2.87
2017-12-28T04:10:44.689Z,3.09
2017-12-28T04:11:47.617Z,3.07
2017-12-28T04:12:50.916Z,3.23
2017-12-28T04:13:53.833Z,3.19
2017-12-28T04:14:56.743Z,3.22
2017-12-28T04:15:59.673Z,3.20
2017-12-28T04:17:03.235Z,3.21
2017-12-28T04:18:06.210Z,3.26
2017-12-28T04:19:09.623Z,3.17
2017-12-28T04:20:12.544Z,3.07
2017-12-28T04:21:15.449Z,2.92
2017-12-28T04:22:19.404Z,3.02
2017-12-28T04:23:22.329Z,3.19
2017-12-28T04:24:25.190Z,3.12
2017-12-28T04:25:28.327Z,3.22
2017-12-28T04:26:31.166Z,3.37
2017-12-28T04:27:34.004Z,3.50
2017-12-28T04:28:36.851Z,3.44
2017-12-28T04:29:39.685Z,3.45
2017-12-28T04:30:42.630Z,3.35
2017-12-28T04:31:45.878Z,3.12
2017-12-28T04:32:48.782Z,3.21
2017-12-28T04:33:51.760Z,3.43
2017-12-28T04:34:54.693Z,3.26
2017-12-28T04:35:57.601Z,3.12
2017-12-28T04:37:00.523Z,3.29
2017-12-28T04:38:03.922Z,2.98
2017-12-28T04:39:08.623Z,3.05
2017-12-28T04:40:11.507Z,3.21
2017-12-28T04:41:14.383Z,2.82
2017-12-28T04:42:17.255Z,3.07
2017-12-28T04:43:20.161Z,3.18
2017-12-28T04:44:23.432Z,3.19
2017-12-28T04:45:26.374Z,2.84
2017-12-28T04:46:29.396Z,3.02
2017-12-28T04:47:32.329Z,2.88
2017-12-28T04:48:35.319Z,2.91
2017-12-28T04:49:38.277Z,2.86
2017-12-28T04:50:41.693Z,2.91
2017-12-28T04:51:45.411Z,2.82
2017-12-28T04:52:49.599Z,2.92
2017-12-28T04:53:52.536Z,2.97
2017-12-28T04:54:55.473Z,3.04
2017-12-28T04:55:59.274Z,3.01
2017-12-28T04:57:02.126Z,3.08
2017-12-28T04:58:04.958Z,2.97
2017-12-28T04:59:07.797Z,3.00
2017-12-28T05:00:10.640Z,3.03
2017-12-28T05:01:13.448Z,2.85
2017-12-28T05:02:16.776Z,3.03
2017-12-28T05:03:19.726Z,2.88
2017-12-28T05:04:22.672Z,3.06
2017-12-28T05:05:25.619Z,2.91
2017-12-28T05:06:28.485Z,3.06
2017-12-28T05:07:31.342Z,3.06
2017-12-28T05:08:34.588Z,3.15
2017-12-28T05:09:38.540Z,3.09
2017-12-28T05:10:41.462Z,3.20
2017-12-28T05:11:44.448Z,3.15
2017-12-28T05:12:47.412Z,3.16
2017-12-28T05:13:50.342Z,3.09
2017-12-28T05:14:53.730Z,3.06
2017-12-28T05:15:56.726Z,3.06
2017-12-28T05:16:59.681Z,3.07
2017-12-28T05:18:02.632Z,3.13
2017-12-28T05:19:05.539Z,3.03
2017-12-28T05:20:08.525Z,3.08
2017-12-28T05:21:11.794Z,3.03
2017-12-28T05:22:14.807Z,3.02
2017-12-28T05:23:17.768Z,2.83
2017-12-28T05:24:22.964Z,2.91
2017-12-28T05:25:25.994Z,2.85
2017-12-28T05:26:29.273Z,3.09
2017-12-28T05:27:32.361Z,3.11
2017-12-28T05:28:35.275Z,2.97
2017-12-28T05:29:38.227Z,2.90
2017-12-28T05:30:41.139Z,2.88
2017-12-28T05:31:44.108Z,2.81
2017-12-28T05:32:47.929Z,3.09
2017-12-28T05:33:52.178Z,3.00
2017-12-28T05:34:55.188Z,3.07
2017-12-28T05:35:58.187Z,2.84
2017-12-28T05:37:01.114Z,2.95
2017-12-28T05:38:04.166Z,2.96
2017-12-28T05:39:07.405Z,2.92
2017-12-28T05:40:10.435Z,2.93
2017-12-28T05:41:13.302Z,2.96
2017-12-28T05:42:17.115Z,2.78
2017-12-28T05:43:20.117Z,2.70
2017-12-28T05:44:23.077Z,2.76
2017-12-28T05:45:26.414Z,2.79
2017-12-28T05:46:29.378Z,2.98
2017-12-28T05:47:32.225Z,2.89
2017-12-28T05:48:35.172Z,2.73
2017-12-28T05:49:38.005Z,2.88
2017-12-28T05:50:40.919Z,2.95
2017-12-28T05:51:44.411Z,2.77
2017-12-28T05:52:47.236Z,2.92
2017-12-28T05:53:50.192Z,2.62
2017-12-28T05:54:53.018Z,2.74
2017-12-28T05:55:55.864Z,2.83
2017-12-28T05:56:58.711Z,2.74
2017-12-28T05:58:01.900Z,2.77
2017-12-28T05:59:04.794Z,2.92
2017-12-28T06:00:07.723Z,2.71
2017-12-28T06:01:10.607Z,2.74
2017-12-28T06:02:13.555Z,2.75
2017-12-28T06:03:16.645Z,2.85
2017-12-28T06:04:19.886Z,2.90
2017-12-28T06:05:22.800Z,2.70
2017-12-28T06:06:25.849Z,2.73
2017-12-28T06:07:28.884Z,3.01
2017-12-28T06:08:31.757Z,2.72
2017-12-28T06:09:34.717Z,2.89
2017-12-28T06:10:37.926Z,2.79
2017-12-28T06:11:40.891Z,2.77
2017-12-28T06:12:43.794Z,2.83
2017-12-28T06:13:46.740Z,2.79
2017-12-28T06:14:49.819Z,2.71
2017-12-28T06:15:52.741Z,2.89
2017-12-28T06:16:55.937Z,2.79
2017-12-28T06:17:58.909Z,2.83
2017-12-28T06:19:01.841Z,3.07
2017-12-28T06:20:04.765Z,3.04
2017-12-28T06:21:07.593Z,2.82
2017-12-28T06:22:10.469Z,2.77
2017-12-28T06:23:14.308Z,2.76
2017-12-28T06:24:18.059Z,2.58
2017-12-28T06:25:20.905Z,2.69
2017-12-28T06:26:23.891Z,2.54
2017-12-28T06:27:26.870Z,2.80
2017-12-28T06:28:29.814Z,2.79
2017-12-28T06:29:33.042Z,2.51
2017-12-28T06:30:36.043Z,2.69
2017-12-28T06:31:38.999Z,2.62
2017-12-28T06:32:41.925Z,2.62
2017-12-28T06:33:44.893Z,2.60
2017-12-28T06:34:47.874Z,2.36
2017-12-28T06:35:51.021Z,2.02
2017-12-28T06:36:53.966Z,2.14
2017-12-28T06:37:56.962Z,2.28
2017-12-28T06:38:59.892Z,2.07
2017-12-28T06:40:02.858Z,2.21
2017-12-28T06:41:05.764Z,2.19
2017-12-28T06:42:09.022Z,2.36
2017-12-28T06:43:11.946Z,2.16
2017-12-28T06:44:14.791Z,2.11
2017-12-28T06:45:17.637Z,2.23
2017-12-28T06:46:20.487Z,2.20
2017-12-28T06:47:23.908Z,2.26
2017-12-28T06:48:27.041Z,2.36
2017-12-28T06:49:29.950Z,2.19
2017-12-28T06:50:33.854Z,2.38
2017-12-28T06:51:36.810Z,2.44
2017-12-28T06:52:39.993Z,2.46
2017-12-28T06:53:42.956Z,2.17
2017-12-28T06:54:46.143Z,2.27
2017-12-28T06:55:49.124Z,2.31
2017-12-28T06:56:51.996Z,2.14
2017-12-28T06:57:54.879Z,2.33
2017-12-28T06:58:57.823Z,2.13
2017-12-28T07:00:00.698Z,2.09
2017-12-28T07:01:03.894Z,2.40
2017-12-28T07:02:06.807Z,2.36
2017-12-28T07:03:09.790Z,2.26
2017-12-28T07:04:14.175Z,2.40
2017-12-28T07:05:17.024Z,2.34
2017-12-28T07:06:19.938Z,2.33
2017-12-28T07:07:23.103Z,2.45
2017-12-28T07:08:26.046Z,2.39
2017-12-28T07:09:28.979Z,2.22
2017-12-28T07:10:31.918Z,2.25
2017-12-28T07:11:34.871Z,2.28
2017-12-28T07:12:37.829Z,2.27
2017-12-28T07:13:41.384Z,2.45
2017-12-28T07:14:44.344Z,2.30
2017-12-28T07:15:47.431Z,2.26
2017-12-28T07:16:50.444Z,2.13
2017-12-28T07:17:53.563Z,2.18
2017-12-28T07:18:56.766Z,2.33
2017-12-28T07:20:00.050Z,2.37
2017-12-28T07:21:03.026Z,2.24
2017-12-28T07:22:06.033Z,2.38
2017-12-28T07:23:08.978Z,2.46
2017-12-28T07:24:12.599Z,2.50
2017-12-28T07:25:15.536Z,2.49
2017-12-28T07:26:18.821Z,2.27
2017-12-28T07:27:21.766Z,2.27
2017-12-28T07:28:24.705Z,2.48
2017-12-28T07:29:27.661Z,2.48
2017-12-28T07:30:30.663Z,2.44
2017-12-28T07:31:33.847Z,2.46
2017-12-28T07:32:37.116Z,2.39
2017-12-28T07:33:40.092Z,2.28
2017-12-28T07:34:43.081Z,2.59
2017-12-28T07:35:46.026Z,2.54
2017-12-28T07:36:49.014Z,2.45
2017-12-28T07:37:51.935Z,2.60
2017-12-28T07:38:55.166Z,2.57
2017-12-28T07:39:58.189Z,2.50
2017-12-28T07:41:01.148Z,2.46
2017-12-28T07:42:04.098Z,2.30
2017-12-28T07:43:07.057Z,2.37
2017-12-28T07:44:09.985Z,2.50
2017-12-28T07:45:13.214Z,2.61
2017-12-28T07:46:16.163Z,2.55
2017-12-28T07:47:19.052Z,2.57
2017-12-28T07:48:22.153Z,2.53
2017-12-28T07:49:24.993Z,2.57
2017-12-28T07:50:27.890Z,2.43
2017-12-28T07:51:31.166Z,2.35
2017-12-28T07:52:34.116Z,2.47
2017-12-28T07:53:37.026Z,2.45
2017-12-28T07:54:39.898Z,2.42
2017-12-28T07:55:42.817Z,2.50
2017-12-28T07:56:45.955Z,2.27
2017-12-28T07:57:50.275Z,2.41
2017-12-28T07:58:53.293Z,2.36
2017-12-28T07:59:56.405Z,2.55
2017-12-28T08:00:59.345Z,2.62
2017-12-28T08:02:02.278Z,2.57
2017-12-28T08:03:05.922Z,2.56
2017-12-28T08:04:09.160Z,2.45
2017-12-28T08:05:12.101Z,2.43
2017-12-28T08:06:15.048Z,2.20
2017-12-28T08:07:17.980Z,2.44
2017-12-28T08:08:20.946Z,2.38
2017-12-28T08:09:23.876Z,2.28
2017-12-28T08:10:27.282Z,2.20
2017-12-28T08:11:30.263Z,2.41
2017-12-28T08:12:33.195Z,2.34
2017-12-28T08:13:36.856Z,2.19
2017-12-28T08:14:39.808Z,2.35
2017-12-28T08:15:42.747Z,2.39
2017-12-28T08:16:46.038Z,2.26
2017-12-28T08:17:49.879Z,2.41
2017-12-28T08:18:52.804Z,2.13
2017-12-28T08:19:55.898Z,2.19
2017-12-28T08:20:59.899Z,2.31
2017-12-28T08:22:02.887Z,2.39
2017-12-28T08:23:06.161Z,2.16
2017-12-28T08:24:09.140Z,2.34
2017-12-28T08:25:12.145Z,2.34
2017-12-28T08:26:15.131Z,2.28
2017-12-28T08:27:18.188Z,2.37
2017-12-28T08:28:21.092Z,2.41
2017-12-28T08:29:24.596Z,2.30
2017-12-28T08:30:27.609Z,2.45
2017-12-28T08:31:30.556Z,2.41
2017-12-28T08:32:33.651Z,2.27
2017-12-28T08:33:36.523Z,2.45
2017-12-28T08:34:39.486Z,2.29
2017-12-28T08:35:42.708Z,2.28
2017-12-28T08:36:45.601Z,2.23
2017-12-28T08:37:48.508Z,2.51
2017-12-28T08:38:51.399Z,2.38
2017-12-28T08:39:54.852Z,2.38
2017-12-28T08:40:57.768Z,2.46
2017-12-28T08:42:00.941Z,2.57
2017-12-28T08:43:03.914Z,2.48
2017-12-28T08:44:06.856Z,2.55
2017-12-28T08:45:09.736Z,2.48
2017-12-28T08:46:12.635Z,2.35
2017-12-28T08:47:15.554Z,2.41
2017-12-28T08:48:18.822Z,2.30
2017-12-28T08:49:21.734Z,2.44
2017-12-28T08:50:24.681Z,2.43
2017-12-28T08:51:27.618Z,2.51
2017-12-28T08:52:30.496Z,2.49
2017-12-28T08:53:33.471Z,2.41
2017-12-28T08:54:36.744Z,2.46
2017-12-28T08:55:39.615Z,2.56
2017-12-28T08:56:42.576Z,2.54
2017-12-28T08:57:45.941Z,2.53
2017-12-28T08:58:48.816Z,2.60
2017-12-28T08:59:51.799Z,2.52
2017-12-28T09:00:55.042Z,2.44
2017-12-28T09:01:57.952Z,2.58
2017-12-28T09:03:00.841Z,2.52
2017-12-28T09:04:03.717Z,2.45
2017-12-28T09:05:06.630Z,2.65
2017-12-28T09:06:09.678Z,2.70
2017-12-28T09:07:13.028Z,2.64
2017-12-28T09:08:15.966Z,2.76
2017-12-28T09:09:19.211Z,2.90
2017-12-28T09:10:23.092Z,3.02
2017-12-28T09:11:26.084Z,2.89
2017-12-28T09:12:29.117Z,2.75
2017-12-28T09:13:32.610Z,3.04
2017-12-28T09:14:35.588Z,2.79
2017-12-28T09:15:38.576Z,2.88
2017-12-28T09:16:41.615Z,3.14
2017-12-28T09:17:44.594Z,3.06
2017-12-28T09:18:47.545Z,2.93
2017-12-28T09:19:50.814Z,2.88
2017-12-28T09:20:53.814Z,3.02
2017-12-28T09:21:56.811Z,2.79
2017-12-28T09:22:59.831Z,3.06
2017-12-28T09:24:02.827Z,3.06
2017-12-28T09:25:05.899Z,3.18
2017-12-28T09:26:09.197Z,3.41
2017-12-28T09:27:12.279Z,3.99
2017-12-28T09:28:15.647Z,3.83
2017-12-28T09:29:18.656Z,3.38
2017-12-28T09:30:21.648Z,3.52
2017-12-28T09:31:24.654Z,3.29
2017-12-28T09:32:27.891Z,3.75
2017-12-28T09:33:30.881Z,3.87
2017-12-28T09:34:33.822Z,3.45
2017-12-28T09:35:36.851Z,3.82
2017-12-28T09:36:39.810Z,3.86
2017-12-28T09:37:42.853Z,3.85
2017-12-28T09:38:46.113Z,3.93
2017-12-28T09:39:49.086Z,3.58
2017-12-28T09:40:52.418Z,3.42
2017-12-28T09:41:55.294Z,3.01
2017-12-28T09:42:59.797Z,3.11
2017-12-28T09:44:04.221Z,3.16
2017-12-28T09:45:07.461Z,3.26
2017-12-28T09:46:10.278Z,3.21
2017-12-28T09:47:13.243Z,3.16
2017-12-28T09:48:16.129Z,3.33
2017-12-28T09:49:18.951Z,3.35
2017-12-28T09:50:21.885Z,3.23
2017-12-28T09:51:25.074Z,3.18
2017-12-28T09:52:28.008Z,3.25
2017-12-28T09:53:30.944Z,3.18
2017-12-28T09:54:33.905Z,3.07
2017-12-28T09:55:36.869Z,2.76
2017-12-28T09:56:39.801Z,2.71
2017-12-28T09:57:43.040Z,2.87
2017-12-28T09:58:45.990Z,2.99
2017-12-28T09:59:48.839Z,3.05
2017-12-28T10:00:52.258Z,2.78
2017-12-28T10:01:55.223Z,2.83
2017-12-28T10:02:58.182Z,3.04
2017-12-28T10:04:01.378Z,3.31
2017-12-28T10:05:04.326Z,2.94
2017-12-28T10:06:07.440Z,3.09
2017-12-28T10:07:10.389Z,2.98
2017-12-28T10:08:13.313Z,3.31
2017-12-28T10:09:16.478Z,3.48
2017-12-28T10:10:19.590Z,3.46
2017-12-28T10:11:22.555Z,3.20
2017-12-28T10:12:25.545Z,3.17
2017-12-28T10:13:28.503Z,3.20
2017-12-28T10:14:31.628Z,2.87
2017-12-28T10:15:34.648Z,3.03
2017-12-28T10:16:37.904Z,3.03
2017-12-28T10:17:40.839Z,3.05
2017-12-28T10:18:43.748Z,2.81
2017-12-28T10:19:46.653Z,2.86
2017-12-28T10:20:49.615Z,2.93
2017-12-28T10:21:52.570Z,2.76
2017-12-28T10:22:55.934Z,2.84
2017-12-28T10:23:58.825Z,2.72
2017-12-28T10:25:01.756Z,2.81
2017-12-28T10:26:04.756Z,3.05
2017-12-28T10:27:07.720Z,2.93
2017-12-28T10:28:10.676Z,3.01
2017-12-28T10:29:14.035Z,2.82
2017-12-28T10:30:17.082Z,2.97
2017-12-28T10:31:20.050Z,2.78
2017-12-28T10:32:22.992Z,2.66
2017-12-28T10:33:26.046Z,2.50
2017-12-28T10:34:30.010Z,2.70
2017-12-28T10:35:33.807Z,2.48
2017-12-28T10:36:36.769Z,2.54
2017-12-28T10:37:39.705Z,2.52
2017-12-28T10:38:42.662Z,2.47
2017-12-28T10:39:45.633Z,2.50
2017-12-28T10:40:48.535Z,2.44
2017-12-28T10:41:51.737Z,2.58
2017-12-28T10:42:54.700Z,2.70
2017-12-28T10:43:57.593Z,2.25
2017-12-28T10:45:00.456Z,2.47
2017-12-28T10:46:03.395Z,2.55
2017-12-28T10:47:07.125Z,2.58
2017-12-28T10:48:10.561Z,2.61
2017-12-28T10:49:13.503Z,2.88
2017-12-28T10:50:16.464Z,2.31
2017-12-28T10:51:19.353Z,2.77
2017-12-28T10:52:22.384Z,2.43
2017-12-28T10:53:25.351Z,2.96
2017-12-28T10:54:28.582Z,2.68
2017-12-28T10:55:33.756Z,2.82
2017-12-28T10:56:36.735Z,2.35
2017-12-28T10:57:39.742Z,2.84
2017-12-28T10:58:42.749Z,2.76
2017-12-28T10:59:45.708Z,2.44
2017-12-28T11:00:48.876Z,2.57
2017-12-28T11:01:51.815Z,2.53
2017-12-28T11:02:55.235Z,2.40
2017-12-28T11:03:58.190Z,2.50
2017-12-28T11:05:01.425Z,2.37
2017-12-28T11:06:04.355Z,2.66
2017-12-28T11:07:07.711Z,2.54
2017-12-28T11:08:10.686Z,2.32
2017-12-28T11:09:14.043Z,2.46
2017-12-28T11:10:17.126Z,2.37
2017-12-28T11:11:20.189Z,2.56
2017-12-28T11:12:23.142Z,2.32
2017-12-28T11:13:26.453Z,2.50
2017-12-28T11:14:29.420Z,2.64
2017-12-28T11:15:32.503Z,2.49
2017-12-28T11:16:35.441Z,2.60
2017-12-28T11:17:38.462Z,2.68
2017-12-28T11:18:41.429Z,2.72
2017-12-28T11:19:44.681Z,2.41
2017-12-28T11:20:47.618Z,2.43
2017-12-28T11:21:50.626Z,2.48
2017-12-28T11:22:53.689Z,2.49
2017-12-28T11:23:56.722Z,2.32
2017-12-28T11:24:59.701Z,2.31
2017-12-28T11:26:03.138Z,2.57
2017-12-28T11:27:06.103Z,2.40
2017-12-28T11:28:09.062Z,2.32
2017-12-28T11:29:12.069Z,2.42
2017-12-28T11:30:19.038Z,2.21
2017-12-28T11:31:22.002Z,2.64
2017-12-28T11:32:25.315Z,2.59
2017-12-28T11:33:28.223Z,2.11
2017-12-28T11:34:31.168Z,2.34
2017-12-28T11:35:34.135Z,2.55
2017-12-28T11:36:37.110Z,2.26
2017-12-28T11:37:40.113Z,2.53
2017-12-28T11:38:43.369Z,2.28
2017-12-28T11:39:46.382Z,2.41
2017-12-28T11:40:49.351Z,2.64
2017-12-28T11:41:52.330Z,2.38
2017-12-28T11:42:55.299Z,2.40
2017-12-28T11:43:58.269Z,2.57
2017-12-28T11:45:01.612Z,2.43
2017-12-28T11:46:04.767Z,2.55
2017-12-28T11:47:07.734Z,2.66
2017-12-28T11:48:10.889Z,2.46
2017-12-28T11:49:17.760Z,2.70
2017-12-28T11:50:20.852Z,2.63
2017-12-28T11:51:24.329Z,2.69
2017-12-28T11:52:31.141Z,2.73
2017-12-28T11:53:34.284Z,2.54
2017-12-28T11:54:41.115Z,2.29
2017-12-28T11:55:44.086Z,2.36
2017-12-28T11:56:51.298Z,2.50
2017-12-28T11:57:56.891Z,2.29
2017-12-28T11:59:00.599Z,2.37
2017-12-28T12:00:07.466Z,2.47
2017-12-28T12:01:10.560Z,2.34
2017-12-28T12:02:13.675Z,2.54
2017-12-28T12:03:20.533Z,2.25
2017-12-28T12:04:24.028Z,2.36
2017-12-28T12:05:27.170Z,2.56
2017-12-28T12:06:30.731Z,2.32
2017-12-28T12:07:36.744Z,2.56
2017-12-28T12:08:43.580Z,2.60
2017-12-28T12:09:50.082Z,2.43
2017-12-28T12:10:53.183Z,2.71
2017-12-28T12:11:56.106Z,2.57
2017-12-28T12:12:59.088Z,2.76
2017-12-28T12:14:02.346Z,2.77
2017-12-28T12:15:05.350Z,2.84
2017-12-28T12:16:08.317Z,2.65
2017-12-28T12:17:11.249Z,2.83
2017-12-28T12:18:14.128Z,2.90
2017-12-28T12:19:17.022Z,2.84
2017-12-28T12:20:20.255Z,2.78
2017-12-28T12:21:23.232Z,2.61
2017-12-28T12:22:26.179Z,2.46
2017-12-28T12:23:29.136Z,2.61
2017-12-28T12:24:32.086Z,2.29
2017-12-28T12:25:35.080Z,2.58
2017-12-28T12:26:38.542Z,2.22
2017-12-28T12:27:41.503Z,2.51
2017-12-28T12:28:44.470Z,2.69
2017-12-28T12:29:47.433Z,2.41
2017-12-28T12:30:51.036Z,2.49
2017-12-28T12:31:53.985Z,2.94
2017-12-28T12:32:57.649Z,2.81
2017-12-28T12:34:00.589Z,2.70
2017-12-28T12:35:04.337Z,2.67
2017-12-28T12:36:07.281Z,2.83
2017-12-28T12:37:10.216Z,2.43
2017-12-28T12:38:13.205Z,2.33
2017-12-28T12:39:16.444Z,2.24
2017-12-28T12:40:19.724Z,2.49
2017-12-28T12:41:22.812Z,2.59
2017-12-28T12:42:25.845Z,2.46
2017-12-28T12:43:28.851Z,2.21
2017-12-28T12:44:31.801Z,2.27
2017-12-28T12:45:34.738Z,2.28
2017-12-28T12:46:38.023Z,2.47
2017-12-28T12:47:41.018Z,2.26
2017-12-28T12:48:44.121Z,2.49
2017-12-28T12:49:47.211Z,2.33
2017-12-28T12:50:50.166Z,2.52
2017-12-28T12:51:53.125Z,2.13
2017-12-28T12:52:56.083Z,2.07
2017-12-28T12:53:59.057Z,2.01
2017-12-28T12:55:02.013Z,2.14
2017-12-28T12:56:05.425Z,2.10
2017-12-28T12:57:08.505Z,2.31
2017-12-28T12:58:12.014Z,1.85
2017-12-28T12:59:15.048Z,2.10
2017-12-28T13:00:18.052Z,2.03
2017-12-28T13:01:21.110Z,2.08
2017-12-28T13:02:24.440Z,2.03
2017-12-28T13:03:27.402Z,2.21
2017-12-28T13:04:30.310Z,2.42
2017-12-28T13:05:33.283Z,2.46
2017-12-28T13:06:36.261Z,2.49
2017-12-28T13:07:39.307Z,2.29
2017-12-28T13:08:43.351Z,2.57
2017-12-28T13:09:46.382Z,2.29
2017-12-28T13:10:49.426Z,1.92
2017-12-28T13:11:52.483Z,2.19
2017-12-28T13:12:55.494Z,2.19
2017-12-28T13:13:58.471Z,2.14
2017-12-28T13:15:01.838Z,2.41
2017-12-28T13:16:04.844Z,1.76
2017-12-28T13:17:07.865Z,2.26
2017-12-28T13:18:10.846Z,2.68
2017-12-28T13:19:14.483Z,2.79
2017-12-28T13:20:17.473Z,2.58
2017-12-28T13:21:21.722Z,2.74
2017-12-28T13:22:24.733Z,3.17
2017-12-28T13:23:27.688Z,3.15
2017-12-28T13:24:30.643Z,2.87
2017-12-28T13:25:34.458Z,2.22
2017-12-28T13:26:37.682Z,2.66
2017-12-28T13:27:41.440Z,2.65
2017-12-28T13:28:44.552Z,1.91
2017-12-28T13:29:47.532Z,1.85
2017-12-28T13:30:50.588Z,2.02
2017-12-28T13:31:53.677Z,2.26
2017-12-28T13:32:56.726Z,2.12
2017-12-28T13:34:00.272Z,1.81
2017-12-28T13:35:03.655Z,1.75
2017-12-28T13:36:06.615Z,2.03
2017-12-28T13:37:09.648Z,1.90
2017-12-28T13:38:12.599Z,2.07
2017-12-28T13:39:15.599Z,1.99
2017-12-28T13:40:18.788Z,1.81
2017-12-28T13:41:23.012Z,1.90
2017-12-28T13:42:26.212Z,1.97
2017-12-28T13:43:29.340Z,2.03
2017-12-28T13:44:32.243Z,1.88
2017-12-28T13:45:35.153Z,1.75
2017-12-28T13:46:38.441Z,1.98
2017-12-28T13:47:41.364Z,1.90
2017-12-28T13:48:44.238Z,1.59
2017-12-28T13:49:47.119Z,1.69
2017-12-28T13:50:50.071Z,1.66
2017-12-28T13:51:53.007Z,1.79
2017-12-28T13:52:56.582Z,1.76
2017-12-28T13:53:59.607Z,1.83
2017-12-28T13:55:02.653Z,1.69
2017-12-28T13:56:05.661Z,1.89
2017-12-28T13:57:08.683Z,1.75
2017-12-28T13:58:12.357Z,1.92
2017-12-28T13:59:15.722Z,1.60
2017-12-28T14:00:18.723Z,1.79